Fort Myers, FL (33903)

12:00 AM EDT on July 26, 2016 (GMT -0400)
K3PSP South | | Change Station

Elev 13 ft 26.69 °N, 81.93 °W | Updated 16 seconds ago

Partly Cloudy
Partly Cloudy
78.3 °F
Feels Like 81 °F
N
0.0
Wind Variable Wind from West
Gusts 0.0 mph

Today
High -- | Low -- °F
--% Chance of Precip.
Yesterday
High -- | Low -- °F
Precip. -- in
Pressure 30.07 in
Visibility 10.0 miles
Clouds Few 4800 ft
Heat Index 81 °F
Dew Point 74 °F
Humidity 86%
Rainfall 0.00 in
Snow Depth Not available.
6:49 AM 8:18 PM
Waning Gibbous, 59% visible
METAR KFMY 260353Z AUTO 00000KT 10SM FEW048 26/24 A3007 RMK AO2 SLP183 T02560239
Pressure 30.07 in
Visibility 10.0 miles
Clouds Few 4800 ft
Heat Index 81 °F
Dew Point 74 °F
Humidity 86%
Rainfall 0.00 in
Snow Depth Not available.
6:49 AM 8:18 PM
Waning Gibbous, 59% visible
METAR KFMY 260353Z AUTO 00000KT 10SM FEW048 26/24 A3007 RMK AO2 SLP183 T02560239
Record highs are possible for parts of the Northeast Monday and Tuesday, as parts of the central U.S. take a little breather from the worst of summer's dog day heat.

Expansive high pressure in the upper atmosphere will focus on parts of the East and West this week, sending heat indices well into the triple digits from the Mid-Atlantic states into the South.

10-Day Weather Forecast

Almanac

Astronomy

Jul. 26, 2016 Rise Set
Actual Time
Civil Twilight
Nautical Twilight
Astronomical Twilight
Moon
Length of Visible Light
Length of Day
Tomorrow will be .
, % of the Moon is Illuminated

Today's Extremes

State Highs State Lows

Community

WunderPhotos

Upload Photos

1,927,523 photos uploaded!

WunderBlog® & News

Nearby

Air Quality

  Air Quality AQ Index Pollutant
Not available.

Snow Depth

Station Depth Elevation

Earthquake Activity

City Distance Mag. Time & Date
Minimum magnitude displayed is 2.5.

Coastal Water Temperatures

Place Temperature

Stations

Nearby Weather Stations

Station Location Temp. Windchill Dew Point Humidity Wind Precip. Elev Updated Type
                   

Watches & Warnings

There are currently no watches in effect.